sensor_id;sensor_type;location;lat;lon;timestamp;pressure;altitude;pressure_sealevel;temperature;humidity
63447;BME280;49577;49.872;6.190;2023-04-25T00:00:28;98915.23;;;7.53;84.36
63447;BME280;49577;49.872;6.190;2023-04-25T00:02:53;98908.60;;;7.53;84.14
63447;BME280;49577;49.872;6.190;2023-04-25T00:05:18;98906.91;;;7.52;84.25
63447;BME280;49577;49.872;6.190;2023-04-25T00:07:44;98905.34;;;7.52;84.40
63447;BME280;49577;49.872;6.190;2023-04-25T00:10:11;98907.85;;;7.52;84.23
63447;BME280;49577;49.872;6.190;2023-04-25T00:12:37;98906.22;;;7.50;84.32
63447;BME280;49577;49.872;6.190;2023-04-25T00:15:03;98906.96;;;7.49;84.43
63447;BME280;49577;49.872;6.190;2023-04-25T00:17:28;98904.86;;;7.49;84.52
63447;BME280;49577;49.872;6.190;2023-04-25T00:19:54;98900.35;;;7.49;84.39
63447;BME280;49577;49.872;6.190;2023-04-25T00:22:21;98899.65;;;7.46;84.24
63447;BME280;49577;49.872;6.190;2023-04-25T00:24:46;98899.45;;;7.44;84.31
63447;BME280;49577;49.872;6.190;2023-04-25T00:27:11;98901.20;;;7.41;84.35
63447;BME280;49577;49.872;6.190;2023-04-25T00:29:37;98898.98;;;7.37;84.45
63447;BME280;49577;49.872;6.190;2023-04-25T00:32:02;98897.42;;;7.34;84.42
63447;BME280;49577;49.872;6.190;2023-04-25T00:34:27;98901.73;;;7.32;84.68
63447;BME280;49577;49.872;6.190;2023-04-25T00:36:53;98902.58;;;7.32;84.75
63447;BME280;49577;49.872;6.190;2023-04-25T00:39:18;98900.35;;;7.32;84.64
63447;BME280;49577;49.872;6.190;2023-04-25T00:41:45;98897.49;;;7.30;84.68
63447;BME280;49577;49.872;6.190;2023-04-25T00:44:11;98901.27;;;7.28;84.57
63447;BME280;49577;49.872;6.190;2023-04-25T00:46:38;98903.56;;;7.25;84.69
63447;BME280;49577;49.872;6.190;2023-04-25T00:49:04;98903.17;;;7.22;84.89
63447;BME280;49577;49.872;6.190;2023-04-25T00:51:30;98899.61;;;7.21;84.95
63447;BME280;49577;49.872;6.190;2023-04-25T00:53:58;98898.81;;;7.20;85.22
63447;BME280;49577;49.872;6.190;2023-04-25T00:56:23;98895.47;;;7.21;85.31
63447;BME280;49577;49.872;6.190;2023-04-25T00:58:49;98894.92;;;7.21;85.20
63447;BME280;49577;49.872;6.190;2023-04-25T01:01:15;98898.62;;;7.17;84.80
63447;BME280;49577;49.872;6.190;2023-04-25T01:03:41;98898.43;;;7.15;84.90
63447;BME280;49577;49.872;6.190;2023-04-25T01:06:09;98891.16;;;7.15;85.23
63447;BME280;49577;49.872;6.190;2023-04-25T01:08:34;98883.42;;;7.13;85.22
63447;BME280;49577;49.872;6.190;2023-04-25T01:11:00;98874.05;;;7.10;85.34
63447;BME280;49577;49.872;6.190;2023-04-25T01:13:26;98873.20;;;7.07;85.46
63447;BME280;49577;49.872;6.190;2023-04-25T01:15:52;98870.20;;;7.04;85.77
63447;BME280;49577;49.872;6.190;2023-04-25T01:18:18;98870.31;;;7.03;85.72
63447;BME280;49577;49.872;6.190;2023-04-25T01:20:46;98868.09;;;6.99;85.46
63447;BME280;49577;49.872;6.190;2023-04-25T01:23:12;98873.21;;;6.95;85.32
63447;BME280;49577;49.872;6.190;2023-04-25T01:25:39;98876.67;;;6.93;85.51
63447;BME280;49577;49.872;6.190;2023-04-25T01:28:05;98876.28;;;6.90;85.71
63447;BME280;49577;49.872;6.190;2023-04-25T01:30:30;98877.20;;;6.90;85.78
63447;BME280;49577;49.872;6.190;2023-04-25T01:32:56;98874.54;;;6.88;85.78
63447;BME280;49577;49.872;6.190;2023-04-25T01:35:22;98874.01;;;6.88;85.78
63447;BME280;49577;49.872;6.190;2023-04-25T01:37:49;98873.17;;;6.87;85.74
63447;BME280;49577;49.872;6.190;2023-04-25T01:40:14;98873.98;;;6.85;85.60
63447;BME280;49577;49.872;6.190;2023-04-25T01:42:42;98877.23;;;6.82;85.61
63447;BME280;49577;49.872;6.190;2023-04-25T01:45:09;98877.21;;;6.80;85.53
63447;BME280;49577;49.872;6.190;2023-04-25T01:47:36;98879.27;;;6.77;85.64
63447;BME280;49577;49.872;6.190;2023-04-25T01:50:02;98884.83;;;6.77;85.80
63447;BME280;49577;49.872;6.190;2023-04-25T01:52:28;98887.39;;;6.78;85.87
63447;BME280;49577;49.872;6.190;2023-04-25T01:54:53;98888.04;;;6.79;85.78
63447;BME280;49577;49.872;6.190;2023-04-25T01:57:19;98889.14;;;6.81;85.82
63447;BME280;49577;49.872;6.190;2023-04-25T01:59:45;98887.14;;;6.82;85.91
63447;BME280;49577;49.872;6.190;2023-04-25T02:02:11;98889.29;;;6.85;85.86
63447;BME280;49577;49.872;6.190;2023-04-25T02:04:36;98885.63;;;6.85;85.77
63447;BME280;49577;49.872;6.190;2023-04-25T02:07:01;98885.36;;;6.83;85.61
63447;BME280;49577;49.872;6.190;2023-04-25T02:09:28;98883.48;;;6.80;85.48
63447;BME280;49577;49.872;6.190;2023-04-25T02:11:53;98879.25;;;6.78;85.42
63447;BME280;49577;49.872;6.190;2023-04-25T02:14:18;98877.66;;;6.76;85.46
63447;BME280;49577;49.872;6.190;2023-04-25T02:16:44;98878.64;;;6.76;85.76
63447;BME280;49577;49.872;6.190;2023-04-25T02:19:10;98875.08;;;6.78;85.79
63447;BME280;49577;49.872;6.190;2023-04-25T02:21:36;98875.75;;;6.78;85.55
63447;BME280;49577;49.872;6.190;2023-04-25T02:24:01;98876.78;;;6.79;85.52
63447;BME280;49577;49.872;6.190;2023-04-25T02:26:27;98872.45;;;6.78;85.63
63447;BME280;49577;49.872;6.190;2023-04-25T02:28:52;98872.09;;;6.79;85.64
63447;BME280;49577;49.872;6.190;2023-04-25T02:31:17;98874.30;;;6.79;85.76
63447;BME280;49577;49.872;6.190;2023-04-25T02:33:43;98873.34;;;6.81;85.81
63447;BME280;49577;49.872;6.190;2023-04-25T02:36:09;98875.60;;;6.81;85.75
63447;BME280;49577;49.872;6.190;2023-04-25T02:38:34;98875.91;;;6.81;85.79
63447;BME280;49577;49.872;6.190;2023-04-25T02:41:00;98876.34;;;6.80;85.79
63447;BME280;49577;49.872;6.190;2023-04-25T02:43:25;98874.52;;;6.79;85.75
63447;BME280;49577;49.872;6.190;2023-04-25T02:45:51;98871.69;;;6.77;85.76
63447;BME280;49577;49.872;6.190;2023-04-25T02:48:16;98873.02;;;6.75;85.63
63447;BME280;49577;49.872;6.190;2023-04-25T02:50:41;98876.77;;;6.73;85.76
63447;BME280;49577;49.872;6.190;2023-04-25T02:53:07;98874.30;;;6.74;85.95
63447;BME280;49577;49.872;6.190;2023-04-25T02:55:32;98879.62;;;6.74;86.08
63447;BME280;49577;49.872;6.190;2023-04-25T02:57:58;98875.59;;;6.78;86.14
63447;BME280;49577;49.872;6.190;2023-04-25T03:00:23;98876.45;;;6.81;86.25
63447;BME280;49577;49.872;6.190;2023-04-25T03:02:50;98873.92;;;6.83;85.99
63447;BME280;49577;49.872;6.190;2023-04-25T03:05:16;98869.70;;;6.81;85.90
63447;BME280;49577;49.872;6.190;2023-04-25T03:07:42;98865.67;;;6.79;86.06
63447;BME280;49577;49.872;6.190;2023-04-25T03:10:08;98863.48;;;6.77;86.11
63447;BME280;49577;49.872;6.190;2023-04-25T03:12:34;98867.79;;;6.78;86.20
63447;BME280;49577;49.872;6.190;2023-04-25T03:15:00;98867.79;;;6.78;86.22
63447;BME280;49577;49.872;6.190;2023-04-25T03:17:25;98868.10;;;6.79;86.21
63447;BME280;49577;49.872;6.190;2023-04-25T03:19:50;98868.95;;;6.79;86.24
63447;BME280;49577;49.872;6.190;2023-04-25T03:22:16;98869.96;;;6.79;86.16
63447;BME280;49577;49.872;6.190;2023-04-25T03:24:41;98870.36;;;6.78;85.88
63447;BME280;49577;49.872;6.190;2023-04-25T03:27:06;98875.23;;;6.78;86.01
63447;BME280;49577;49.872;6.190;2023-04-25T03:29:32;98877.04;;;6.77;85.94
63447;BME280;49577;49.872;6.190;2023-04-25T03:31:57;98875.98;;;6.75;86.15
63447;BME280;49577;49.872;6.190;2023-04-25T03:34:22;98876.53;;;6.74;86.28
63447;BME280;49577;49.872;6.190;2023-04-25T03:36:48;98876.37;;;6.74;86.25
63447;BME280;49577;49.872;6.190;2023-04-25T03:39:14;98872.23;;;6.73;86.38
63447;BME280;49577;49.872;6.190;2023-04-25T03:41:39;98877.12;;;6.73;86.45
63447;BME280;49577;49.872;6.190;2023-04-25T03:44:05;98878.98;;;6.74;86.63
63447;BME280;49577;49.872;6.190;2023-04-25T03:46:30;98875.36;;;6.73;86.39
63447;BME280;49577;49.872;6.190;2023-04-25T03:48:55;98877.59;;;6.71;86.18
63447;BME280;49577;49.872;6.190;2023-04-25T03:51:21;98876.07;;;6.67;86.08
63447;BME280;49577;49.872;6.190;2023-04-25T03:53:46;98876.14;;;6.66;86.17
63447;BME280;49577;49.872;6.190;2023-04-25T03:56:11;98876.55;;;6.65;86.36
63447;BME280;49577;49.872;6.190;2023-04-25T03:58:36;98876.47;;;6.63;86.25
63447;BME280;49577;49.872;6.190;2023-04-25T04:01:02;98875.76;;;6.64;86.33
63447;BME280;49577;49.872;6.190;2023-04-25T04:03:33;98873.06;;;6.65;86.74
63447;BME280;49577;49.872;6.190;2023-04-25T04:05:59;98874.78;;;6.65;86.63
63447;BME280;49577;49.872;6.190;2023-04-25T04:08:25;98881.58;;;6.68;86.67
63447;BME280;49577;49.872;6.190;2023-04-25T04:10:50;98883.78;;;6.72;86.90
63447;BME280;49577;49.872;6.190;2023-04-25T04:13:15;98883.09;;;6.72;86.49
63447;BME280;49577;49.872;6.190;2023-04-25T04:15:40;98884.02;;;6.74;86.95
63447;BME280;49577;49.872;6.190;2023-04-25T04:18:06;98889.61;;;6.79;87.06
63447;BME280;49577;49.872;6.190;2023-04-25T04:20:31;98890.73;;;6.80;86.81
63447;BME280;49577;49.872;6.190;2023-04-25T04:22:57;98889.83;;;6.81;86.62
63447;BME280;49577;49.872;6.190;2023-04-25T04:25:22;98892.27;;;6.81;86.67
63447;BME280;49577;49.872;6.190;2023-04-25T04:27:47;98893.77;;;6.81;86.79
63447;BME280;49577;49.872;6.190;2023-04-25T04:30:12;98893.73;;;6.82;86.89
63447;BME280;49577;49.872;6.190;2023-04-25T04:32:38;98898.27;;;6.85;87.05
63447;BME280;49577;49.872;6.190;2023-04-25T04:35:03;98898.61;;;6.92;87.43
63447;BME280;49577;49.872;6.190;2023-04-25T04:37:29;98901.20;;;6.98;87.53
63447;BME280;49577;49.872;6.190;2023-04-25T04:39:55;98903.44;;;7.04;87.47
63447;BME280;49577;49.872;6.190;2023-04-25T04:42:20;98905.73;;;7.08;87.39
63447;BME280;49577;49.872;6.190;2023-04-25T04:44:46;98910.16;;;7.13;87.19
63447;BME280;49577;49.872;6.190;2023-04-25T04:47:11;98910.01;;;7.16;87.03
63447;BME280;49577;49.872;6.190;2023-04-25T04:49:37;98911.41;;;7.16;86.67
63447;BME280;49577;49.872;6.190;2023-04-25T04:52:03;98909.36;;;7.18;86.98
63447;BME280;49577;49.872;6.190;2023-04-25T04:54:28;98908.86;;;7.23;87.07
63447;BME280;49577;49.872;6.190;2023-04-25T04:56:54;98911.20;;;7.28;86.76
63447;BME280;49577;49.872;6.190;2023-04-25T04:59:19;98915.94;;;7.30;86.41
63447;BME280;49577;49.872;6.190;2023-04-25T05:01:45;98918.59;;;7.32;86.53
63447;BME280;49577;49.872;6.190;2023-04-25T05:04:11;98916.98;;;7.32;86.18
63447;BME280;49577;49.872;6.190;2023-04-25T05:06:37;98913.17;;;7.32;86.01
63447;BME280;49577;49.872;6.190;2023-04-25T05:09:02;98915.63;;;7.32;85.82
63447;BME280;49577;49.872;6.190;2023-04-25T05:11:27;98918.77;;;7.34;85.98
63447;BME280;49577;49.872;6.190;2023-04-25T05:13:53;98918.67;;;7.33;85.28
63447;BME280;49577;49.872;6.190;2023-04-25T05:16:19;98926.63;;;7.34;85.28
63447;BME280;49577;49.872;6.190;2023-04-25T05:18:44;98933.19;;;7.38;84.99
63447;BME280;49577;49.872;6.190;2023-04-25T05:21:10;98942.53;;;7.42;85.25
63447;BME280;49577;49.872;6.190;2023-04-25T05:23:35;98948.48;;;7.55;85.20
63447;BME280;49577;49.872;6.190;2023-04-25T05:26:01;98953.45;;;7.93;85.10
63447;BME280;49577;49.872;6.190;2023-04-25T05:28:26;98953.92;;;8.02;83.68
63447;BME280;49577;49.872;6.190;2023-04-25T05:30:52;98956.50;;;7.94;82.83
63447;BME280;49577;49.872;6.190;2023-04-25T05:33:17;98958.13;;;7.87;82.72
63447;BME280;49577;49.872;6.190;2023-04-25T05:35:42;98964.52;;;7.80;81.80
63447;BME280;49577;49.872;6.190;2023-04-25T05:38:08;98967.72;;;7.73;81.71
63447;BME280;49577;49.872;6.190;2023-04-25T05:40:33;98968.56;;;7.67;81.84
63447;BME280;49577;49.872;6.190;2023-04-25T05:42:59;98971.62;;;7.66;81.70
63447;BME280;49577;49.872;6.190;2023-04-25T05:45:24;98974.79;;;7.65;81.32
63447;BME280;49577;49.872;6.190;2023-04-25T05:47:49;98977.15;;;7.64;80.68
63447;BME280;49577;49.872;6.190;2023-04-25T05:50:15;98975.48;;;7.62;80.37
63447;BME280;49577;49.872;6.190;2023-04-25T05:52:40;98981.58;;;7.62;80.29
63447;BME280;49577;49.872;6.190;2023-04-25T05:55:05;98986.33;;;7.61;80.21
63447;BME280;49577;49.872;6.190;2023-04-25T05:57:31;98990.48;;;7.62;80.16
63447;BME280;49577;49.872;6.190;2023-04-25T05:59:56;98987.45;;;7.63;80.41
63447;BME280;49577;49.872;6.190;2023-04-25T06:02:22;98986.61;;;7.65;80.01
63447;BME280;49577;49.872;6.190;2023-04-25T06:04:50;98990.46;;;7.68;79.42
63447;BME280;49577;49.872;6.190;2023-04-25T06:07:16;98995.29;;;7.65;78.79
63447;BME280;49577;49.872;6.190;2023-04-25T06:09:43;98992.46;;;7.60;78.44
63447;BME280;49577;49.872;6.190;2023-04-25T06:12:08;98993.41;;;7.53;78.26
63447;BME280;49577;49.872;6.190;2023-04-25T06:14:33;98995.05;;;7.46;78.10
63447;BME280;49577;49.872;6.190;2023-04-25T06:16:59;98999.36;;;7.41;78.22
63447;BME280;49577;49.872;6.190;2023-04-25T06:19:31;98997.56;;;7.42;78.58
63447;BME280;49577;49.872;6.190;2023-04-25T06:21:57;98998.74;;;7.46;78.44
63447;BME280;49577;49.872;6.190;2023-04-25T06:24:22;99000.11;;;7.49;78.15
63447;BME280;49577;49.872;6.190;2023-04-25T06:26:47;99004.36;;;7.54;78.02
63447;BME280;49577;49.872;6.190;2023-04-25T06:29:12;99004.90;;;7.65;78.93
63447;BME280;49577;49.872;6.190;2023-04-25T06:31:38;99008.66;;;7.77;78.81
63447;BME280;49577;49.872;6.190;2023-04-25T06:34:03;99007.64;;;7.82;77.89
63447;BME280;49577;49.872;6.190;2023-04-25T06:36:28;99011.66;;;7.88;77.81
63447;BME280;49577;49.872;6.190;2023-04-25T06:38:54;99014.86;;;7.95;77.60
63447;BME280;49577;49.872;6.190;2023-04-25T06:41:20;99016.45;;;8.03;77.31
63447;BME280;49577;49.872;6.190;2023-04-25T06:43:45;99019.86;;;8.07;76.70
63447;BME280;49577;49.872;6.190;2023-04-25T06:46:11;99020.48;;;8.08;75.87
63447;BME280;49577;49.872;6.190;2023-04-25T06:48:36;99026.09;;;8.13;75.58
63447;BME280;49577;49.872;6.190;2023-04-25T06:51:02;99028.11;;;8.23;76.16
63447;BME280;49577;49.872;6.190;2023-04-25T06:53:27;99037.19;;;8.37;76.50
63447;BME280;49577;49.872;6.190;2023-04-25T06:55:53;99035.15;;;8.47;76.38
63447;BME280;49577;49.872;6.190;2023-04-25T06:58:18;99036.39;;;8.58;75.96
63447;BME280;49577;49.872;6.190;2023-04-25T07:00:43;99037.50;;;8.62;75.61
63447;BME280;49577;49.872;6.190;2023-04-25T07:03:09;99038.81;;;8.72;75.42
63447;BME280;49577;49.872;6.190;2023-04-25T07:05:34;99036.45;;;8.78;74.87
63447;BME280;49577;49.872;6.190;2023-04-25T07:08:00;99039.30;;;8.80;74.34
63447;BME280;49577;49.872;6.190;2023-04-25T07:10:25;99042.20;;;8.84;74.40
63447;BME280;49577;49.872;6.190;2023-04-25T07:12:51;99045.00;;;8.86;73.62
63447;BME280;49577;49.872;6.190;2023-04-25T07:15:16;99047.92;;;8.87;73.24
63447;BME280;49577;49.872;6.190;2023-04-25T07:17:41;99051.96;;;8.86;72.58
63447;BME280;49577;49.872;6.190;2023-04-25T07:20:07;99054.63;;;8.82;72.83
63447;BME280;49577;49.872;6.190;2023-04-25T07:22:34;99062.31;;;8.82;72.93
63447;BME280;49577;49.872;6.190;2023-04-25T07:24:59;99061.01;;;8.84;72.81
63447;BME280;49577;49.872;6.190;2023-04-25T07:27:25;99065.60;;;8.83;72.32
63447;BME280;49577;49.872;6.190;2023-04-25T07:29:50;99065.77;;;8.86;72.29
63447;BME280;49577;49.872;6.190;2023-04-25T07:32:15;99062.80;;;8.89;72.08
63447;BME280;49577;49.872;6.190;2023-04-25T07:34:41;99067.30;;;8.92;71.48
63447;BME280;49577;49.872;6.190;2023-04-25T07:37:06;99061.79;;;8.96;71.62
63447;BME280;49577;49.872;6.190;2023-04-25T07:39:32;99070.20;;;9.01;71.01
63447;BME280;49577;49.872;6.190;2023-04-25T07:41:57;99075.80;;;9.03;70.64
63447;BME280;49577;49.872;6.190;2023-04-25T07:44:24;99077.63;;;9.05;70.18
63447;BME280;49577;49.872;6.190;2023-04-25T07:46:49;99078.98;;;9.10;70.56
63447;BME280;49577;49.872;6.190;2023-04-25T07:49:14;99086.11;;;9.19;69.83
63447;BME280;49577;49.872;6.190;2023-04-25T07:51:40;99088.95;;;9.18;68.36
63447;BME280;49577;49.872;6.190;2023-04-25T07:54:06;99092.55;;;9.14;68.11
63447;BME280;49577;49.872;6.190;2023-04-25T07:56:32;99096.72;;;9.11;67.29
63447;BME280;49577;49.872;6.190;2023-04-25T07:58:57;99100.65;;;9.04;67.03
63447;BME280;49577;49.872;6.190;2023-04-25T08:01:22;99103.13;;;9.09;67.98
63447;BME280;49577;49.872;6.190;2023-04-25T08:03:48;99104.41;;;9.24;67.87
63447;BME280;49577;49.872;6.190;2023-04-25T08:06:13;99112.36;;;9.33;67.23
63447;BME280;49577;49.872;6.190;2023-04-25T08:08:38;99112.46;;;9.40;67.27
63447;BME280;49577;49.872;6.190;2023-04-25T08:11:04;99116.08;;;9.46;67.49
63447;BME280;49577;49.872;6.190;2023-04-25T08:13:29;99119.10;;;9.47;67.04
63447;BME280;49577;49.872;6.190;2023-04-25T08:15:55;99126.21;;;9.45;66.82
63447;BME280;49577;49.872;6.190;2023-04-25T08:18:20;99127.81;;;9.42;66.43
63447;BME280;49577;49.872;6.190;2023-04-25T08:20:45;99134.30;;;9.36;65.75
63447;BME280;49577;49.872;6.190;2023-04-25T08:23:10;99140.83;;;9.24;65.22
63447;BME280;49577;49.872;6.190;2023-04-25T08:25:36;99144.58;;;9.17;65.02
63447;BME280;49577;49.872;6.190;2023-04-25T08:28:01;99150.79;;;9.13;65.01
63447;BME280;49577;49.872;6.190;2023-04-25T08:30:28;99152.53;;;9.10;65.25
63447;BME280;49577;49.872;6.190;2023-04-25T08:32:54;99160.11;;;9.09;64.90
63447;BME280;49577;49.872;6.190;2023-04-25T08:35:19;99164.83;;;9.08;64.77
63447;BME280;49577;49.872;6.190;2023-04-25T08:37:45;99164.33;;;9.08;64.73
63447;BME280;49577;49.872;6.190;2023-04-25T08:40:14;99171.09;;;9.06;64.52
63447;BME280;49577;49.872;6.190;2023-04-25T08:42:43;99176.20;;;9.05;65.04
63447;BME280;49577;49.872;6.190;2023-04-25T08:45:09;99179.95;;;9.09;65.22
63447;BME280;49577;49.872;6.190;2023-04-25T08:47:37;99187.34;;;9.11;65.11
63447;BME280;49577;49.872;6.190;2023-04-25T08:50:04;99189.91;;;9.08;65.07
63447;BME280;49577;49.872;6.190;2023-04-25T08:52:36;99191.15;;;9.05;64.43
63447;BME280;49577;49.872;6.190;2023-04-25T08:55:02;99191.12;;;8.95;63.12
63447;BME280;49577;49.872;6.190;2023-04-25T08:57:29;99196.47;;;8.76;62.39
63447;BME280;49577;49.872;6.190;2023-04-25T08:59:56;99199.16;;;8.67;63.35
63447;BME280;49577;49.872;6.190;2023-04-25T09:02:22;99205.09;;;8.69;63.57
63447;BME280;49577;49.872;6.190;2023-04-25T09:04:49;99203.31;;;8.72;63.52
63447;BME280;49577;49.872;6.190;2023-04-25T09:07:14;99209.54;;;8.79;63.56
63447;BME280;49577;49.872;6.190;2023-04-25T09:09:43;99211.47;;;8.95;64.21
63447;BME280;49577;49.872;6.190;2023-04-25T09:12:09;99214.06;;;9.18;64.31
63447;BME280;49577;49.872;6.190;2023-04-25T09:14:35;99220.13;;;9.41;64.08
63447;BME280;49577;49.872;6.190;2023-04-25T09:17:02;99223.59;;;9.70;63.36
63447;BME280;49577;49.872;6.190;2023-04-25T09:19:33;99227.40;;;9.92;62.59
63447;BME280;49577;49.872;6.190;2023-04-25T09:22:02;99229.36;;;10.13;62.72
63447;BME280;49577;49.872;6.190;2023-04-25T09:24:43;99232.40;;;10.38;62.03
63447;BME280;49577;49.872;6.190;2023-04-25T09:27:11;99230.20;;;10.57;61.51
63447;BME280;49577;49.872;6.190;2023-04-25T09:29:38;99236.96;;;10.86;61.05
63447;BME280;49577;49.872;6.190;2023-04-25T09:32:15;99236.83;;;11.40;60.31
63447;BME280;49577;49.872;6.190;2023-04-25T09:34:47;99237.30;;;11.91;58.69
63447;BME280;49577;49.872;6.190;2023-04-25T09:37:18;99233.91;;;12.11;57.44
63447;BME280;49577;49.872;6.190;2023-04-25T09:39:44;99233.11;;;12.33;56.51
63447;BME280;49577;49.872;6.190;2023-04-25T09:42:11;99235.45;;;12.60;55.48
63447;BME280;49577;49.872;6.190;2023-04-25T09:44:36;99236.91;;;12.86;54.98
63447;BME280;49577;49.872;6.190;2023-04-25T09:47:01;99240.77;;;13.24;54.11
63447;BME280;49577;49.872;6.190;2023-04-25T09:49:27;99237.75;;;13.91;53.25
63447;BME280;49577;49.872;6.190;2023-04-25T09:51:54;99236.75;;;14.62;51.79
63447;BME280;49577;49.872;6.190;2023-04-25T09:54:20;99236.40;;;15.11;49.80
63447;BME280;49577;49.872;6.190;2023-04-25T09:56:48;99233.73;;;15.18;47.62
63447;BME280;49577;49.872;6.190;2023-04-25T09:59:14;99233.59;;;14.83;45.21
63447;BME280;49577;49.872;6.190;2023-04-25T10:01:40;99234.23;;;14.34;46.61
63447;BME280;49577;49.872;6.190;2023-04-25T10:04:10;99241.97;;;13.94;47.56
63447;BME280;49577;49.872;6.190;2023-04-25T10:06:37;99247.60;;;13.83;48.91
63447;BME280;49577;49.872;6.190;2023-04-25T10:09:03;99248.67;;;13.74;48.52
63447;BME280;49577;49.872;6.190;2023-04-25T10:11:30;99250.93;;;13.48;47.88
63447;BME280;49577;49.872;6.190;2023-04-25T10:13:56;99251.48;;;13.04;48.24
63447;BME280;49577;49.872;6.190;2023-04-25T10:16:21;99258.59;;;12.64;49.08
63447;BME280;49577;49.872;6.190;2023-04-25T10:18:47;99258.89;;;12.49;49.43
63447;BME280;49577;49.872;6.190;2023-04-25T10:21:14;99263.80;;;12.44;49.28
63447;BME280;49577;49.872;6.190;2023-04-25T10:23:41;99263.94;;;12.51;50.08
63447;BME280;49577;49.872;6.190;2023-04-25T10:26:07;99264.35;;;12.71;50.47
63447;BME280;49577;49.872;6.190;2023-04-25T10:29:00;99254.92;;;12.86;50.36
63447;BME280;49577;49.872;6.190;2023-04-25T10:31:26;99254.08;;;12.95;49.42
63447;BME280;49577;49.872;6.190;2023-04-25T10:33:53;99249.51;;;12.98;48.87
63447;BME280;49577;49.872;6.190;2023-04-25T10:36:21;99251.44;;;13.02;49.63
63447;BME280;49577;49.872;6.190;2023-04-25T10:38:48;99249.86;;;13.02;49.03
63447;BME280;49577;49.872;6.190;2023-04-25T10:41:17;99257.31;;;12.99;49.21
63447;BME280;49577;49.872;6.190;2023-04-25T10:43:44;99254.98;;;12.93;49.33
63447;BME280;49577;49.872;6.190;2023-04-25T10:48:46;99260.60;;;12.79;49.80
63447;BME280;49577;49.872;6.190;2023-04-25T10:54:06;99276.89;;;12.70;49.26
63447;BME280;49577;49.872;6.190;2023-04-25T10:59:18;99278.05;;;12.38;50.43
63447;BME280;49577;49.872;6.190;2023-04-25T11:01:45;99286.36;;;12.23;50.84
63447;BME280;49577;49.872;6.190;2023-04-25T11:04:31;99296.92;;;12.13;51.42
63447;BME280;49577;49.872;6.190;2023-04-25T11:07:07;99298.03;;;12.20;51.34
63447;BME280;49577;49.872;6.190;2023-04-25T11:09:38;99298.43;;;12.42;50.50
63447;BME280;49577;49.872;6.190;2023-04-25T11:12:04;99302.00;;;12.76;50.07
63447;BME280;49577;49.872;6.190;2023-04-25T11:14:30;99294.56;;;13.13;49.48
63447;BME280;49577;49.872;6.190;2023-04-25T11:16:56;99285.31;;;13.96;47.98
63447;BME280;49577;49.872;6.190;2023-04-25T11:19:23;99280.70;;;15.30;46.34
63447;BME280;49577;49.872;6.190;2023-04-25T11:21:49;99281.18;;;15.71;44.85
63447;BME280;49577;49.872;6.190;2023-04-25T11:24:16;99282.14;;;15.80;44.20
63447;BME280;49577;49.872;6.190;2023-04-25T11:26:42;99285.81;;;15.70;44.01
63447;BME280;49577;49.872;6.190;2023-04-25T11:29:08;99287.55;;;15.36;43.80
63447;BME280;49577;49.872;6.190;2023-04-25T11:31:33;99289.33;;;14.79;43.23
63447;BME280;49577;49.872;6.190;2023-04-25T11:33:59;99298.05;;;14.27;44.82
63447;BME280;49577;49.872;6.190;2023-04-25T11:36:25;99297.95;;;14.03;45.44
63447;BME280;49577;49.872;6.190;2023-04-25T11:38:52;99294.95;;;13.95;45.64
63447;BME280;49577;49.872;6.190;2023-04-25T11:41:21;99289.14;;;14.01;46.10
63447;BME280;49577;49.872;6.190;2023-04-25T11:43:47;99292.51;;;14.16;46.30
63447;BME280;49577;49.872;6.190;2023-04-25T11:46:13;99295.27;;;14.42;46.18
63447;BME280;49577;49.872;6.190;2023-04-25T11:48:42;99291.30;;;15.13;44.82
63447;BME280;49577;49.872;6.190;2023-04-25T11:51:08;99287.48;;;15.39;44.07
63447;BME280;49577;49.872;6.190;2023-04-25T11:53:33;99295.51;;;15.42;44.03
63447;BME280;49577;49.872;6.190;2023-04-25T11:55:59;99294.85;;;15.23;43.68
63447;BME280;49577;49.872;6.190;2023-04-25T11:58:25;99297.98;;;14.99;43.71
63447;BME280;49577;49.872;6.190;2023-04-25T12:00:51;99304.02;;;14.64;43.69
63447;BME280;49577;49.872;6.190;2023-04-25T12:03:19;99306.45;;;14.38;44.51
63447;BME280;49577;49.872;6.190;2023-04-25T12:05:46;99310.41;;;14.24;44.68
63447;BME280;49577;49.872;6.190;2023-04-25T12:08:15;99316.26;;;14.19;44.60
63447;BME280;49577;49.872;6.190;2023-04-25T12:10:42;99318.60;;;14.12;44.47
63447;BME280;49577;49.872;6.190;2023-04-25T12:13:22;99322.68;;;14.01;44.62
63447;BME280;49577;49.872;6.190;2023-04-25T12:15:48;99323.09;;;13.85;44.33
63447;BME280;49577;49.872;6.190;2023-04-25T12:18:14;99331.89;;;13.54;44.36
63447;BME280;49577;49.872;6.190;2023-04-25T12:20:39;99331.00;;;13.27;44.27
63447;BME280;49577;49.872;6.190;2023-04-25T12:23:07;99335.80;;;13.06;44.18
63447;BME280;49577;49.872;6.190;2023-04-25T12:25:43;99334.61;;;12.99;44.49
63447;BME280;49577;49.872;6.190;2023-04-25T12:30:54;99341.33;;;13.18;44.37
63447;BME280;49577;49.872;6.190;2023-04-25T12:33:21;99340.23;;;13.37;44.30
63447;BME280;49577;49.872;6.190;2023-04-25T12:35:46;99341.80;;;13.62;44.03
63447;BME280;49577;49.872;6.190;2023-04-25T12:38:20;99344.38;;;13.78;43.32
63447;BME280;49577;49.872;6.190;2023-04-25T12:40:46;99340.79;;;14.03;42.78
63447;BME280;49577;49.872;6.190;2023-04-25T12:43:11;99343.48;;;14.30;42.19
63447;BME280;49577;49.872;6.190;2023-04-25T12:45:36;99338.06;;;14.47;41.65
63447;BME280;49577;49.872;6.190;2023-04-25T12:48:02;99337.73;;;14.62;41.35
63447;BME280;49577;49.872;6.190;2023-04-25T12:50:27;99335.08;;;14.70;41.00
63447;BME280;49577;49.872;6.190;2023-04-25T12:52:53;99336.20;;;14.80;41.03
63447;BME280;49577;49.872;6.190;2023-04-25T12:55:18;99341.66;;;14.75;40.88
63447;BME280;49577;49.872;6.190;2023-04-25T12:57:43;99341.98;;;14.78;41.31
63447;BME280;49577;49.872;6.190;2023-04-25T13:00:09;99340.09;;;14.85;41.26
63447;BME280;49577;49.872;6.190;2023-04-25T13:02:35;99338.65;;;14.90;41.15
63447;BME280;49577;49.872;6.190;2023-04-25T13:05:00;99337.10;;;14.97;41.22
63447;BME280;49577;49.872;6.190;2023-04-25T13:07:25;99337.27;;;15.05;41.14
63447;BME280;49577;49.872;6.190;2023-04-25T13:09:50;99334.16;;;15.16;41.01
63447;BME280;49577;49.872;6.190;2023-04-25T13:12:16;99333.77;;;15.25;40.50